sensor_id;sensor_type;location;lat;lon;timestamp;pressure;altitude;pressure_sealevel;temperature;humidity
35224;BME280;21367;51.930;8.112;2023-09-19T00:03:54;100053.31;;;16.01;100.00
35224;BME280;21367;51.930;8.112;2023-09-19T00:08:59;100066.25;;;15.96;100.00
35224;BME280;21367;51.930;8.112;2023-09-19T00:14:06;100073.22;;;16.02;100.00
35224;BME280;21367;51.930;8.112;2023-09-19T00:19:10;100083.69;;;16.11;100.00
35224;BME280;21367;51.930;8.112;2023-09-19T00:24:14;100092.13;;;15.95;100.00
35224;BME280;21367;51.930;8.112;2023-09-19T00:29:21;100093.06;;;16.00;100.00
35224;BME280;21367;51.930;8.112;2023-09-19T00:34:25;100096.50;;;16.01;100.00
35224;BME280;21367;51.930;8.112;2023-09-19T00:39:28;100101.63;;;15.93;100.00
35224;BME280;21367;51.930;8.112;2023-09-19T00:44:35;100092.91;;;15.83;100.00
35224;BME280;21367;51.930;8.112;2023-09-19T00:49:40;100104.75;;;15.66;100.00
35224;BME280;21367;51.930;8.112;2023-09-19T00:54:44;100110.09;;;15.77;100.00
35224;BME280;21367;51.930;8.112;2023-09-19T00:59:52;100120.25;;;15.63;100.00
35224;BME280;21367;51.930;8.112;2023-09-19T01:04:57;100124.00;;;15.83;100.00
35224;BME280;21367;51.930;8.112;2023-09-19T01:10:02;100126.56;;;15.82;100.00
35224;BME280;21367;51.930;8.112;2023-09-19T01:15:21;100121.44;;;15.86;100.00
35224;BME280;21367;51.930;8.112;2023-09-19T01:20:37;100131.03;;;15.98;100.00
35224;BME280;21367;51.930;8.112;2023-09-19T01:26:07;100146.66;;;16.04;100.00
35224;BME280;21367;51.930;8.112;2023-09-19T01:31:17;100148.34;;;16.01;100.00
35224;BME280;21367;51.930;8.112;2023-09-19T01:36:25;100149.94;;;15.86;100.00
35224;BME280;21367;51.930;8.112;2023-09-19T01:41:41;100158.41;;;15.73;100.00
35224;BME280;21367;51.930;8.112;2023-09-19T01:46:47;100165.41;;;15.80;100.00
35224;BME280;21367;51.930;8.112;2023-09-19T01:51:59;100162.91;;;15.86;100.00
35224;BME280;21367;51.930;8.112;2023-09-19T01:57:09;100168.00;;;15.80;100.00
35224;BME280;21367;51.930;8.112;2023-09-19T02:02:21;100174.91;;;15.81;100.00
35224;BME280;21367;51.930;8.112;2023-09-19T02:07:25;100174.75;;;15.69;100.00
35224;BME280;21367;51.930;8.112;2023-09-19T02:12:29;100175.63;;;15.69;100.00
35224;BME280;21367;51.930;8.112;2023-09-19T02:17:39;100181.72;;;15.71;100.00
35224;BME280;21367;51.930;8.112;2023-09-19T02:22:43;100185.78;;;15.57;100.00
35224;BME280;21367;51.930;8.112;2023-09-19T02:27:47;100181.72;;;15.73;100.00
35224;BME280;21367;51.930;8.112;2023-09-19T02:32:54;100186.63;;;15.52;100.00
35224;BME280;21367;51.930;8.112;2023-09-19T02:37:58;100193.59;;;15.59;100.00
35224;BME280;21367;51.930;8.112;2023-09-19T02:43:04;100197.03;;;15.56;100.00
35224;BME280;21367;51.930;8.112;2023-09-19T02:48:12;100193.25;;;15.33;100.00
35224;BME280;21367;51.930;8.112;2023-09-19T02:53:16;100204.66;;;15.45;100.00
35224;BME280;21367;51.930;8.112;2023-09-19T02:58:20;100209.66;;;15.33;100.00
35224;BME280;21367;51.930;8.112;2023-09-19T03:03:28;100212.34;;;15.41;100.00
35224;BME280;21367;51.930;8.112;2023-09-19T03:08:33;100224.13;;;15.20;100.00
35224;BME280;21367;51.930;8.112;2023-09-19T03:13:38;100221.47;;;15.16;100.00
35224;BME280;21367;51.930;8.112;2023-09-19T03:18:45;100232.38;;;14.95;100.00
35224;BME280;21367;51.930;8.112;2023-09-19T03:23:49;100236.72;;;14.99;100.00
35224;BME280;21367;51.930;8.112;2023-09-19T03:28:54;100240.56;;;14.72;100.00
35224;BME280;21367;51.930;8.112;2023-09-19T03:34:00;100237.06;;;14.67;100.00
35224;BME280;21367;51.930;8.112;2023-09-19T03:39:05;100230.97;;;14.65;100.00
35224;BME280;21367;51.930;8.112;2023-09-19T03:44:09;100236.63;;;14.46;100.00
35224;BME280;21367;51.930;8.112;2023-09-19T03:49:15;100235.59;;;14.36;100.00
35224;BME280;21367;51.930;8.112;2023-09-19T03:54:19;100234.00;;;14.44;100.00
35224;BME280;21367;51.930;8.112;2023-09-19T03:59:23;100241.56;;;14.33;100.00
35224;BME280;21367;51.930;8.112;2023-09-19T04:04:30;100237.19;;;14.31;100.00
35224;BME280;21367;51.930;8.112;2023-09-19T04:09:34;100246.63;;;14.27;100.00
35224;BME280;21367;51.930;8.112;2023-09-19T04:14:37;100241.81;;;14.02;100.00
35224;BME280;21367;51.930;8.112;2023-09-19T04:19:44;100248.16;;;14.19;100.00
35224;BME280;21367;51.930;8.112;2023-09-19T04:24:48;100252.19;;;14.05;100.00
35224;BME280;21367;51.930;8.112;2023-09-19T04:29:51;100258.78;;;14.33;100.00
35224;BME280;21367;51.930;8.112;2023-09-19T04:35:02;100257.97;;;13.92;100.00
35224;BME280;21367;51.930;8.112;2023-09-19T04:40:08;100256.13;;;13.86;100.00
35224;BME280;21367;51.930;8.112;2023-09-19T04:45:14;100270.91;;;13.93;100.00
35224;BME280;21367;51.930;8.112;2023-09-19T04:50:23;100278.09;;;13.69;100.00
35224;BME280;21367;51.930;8.112;2023-09-19T04:55:27;100281.59;;;13.71;100.00
35224;BME280;21367;51.930;8.112;2023-09-19T05:00:31;100282.06;;;13.53;100.00
35224;BME280;21367;51.930;8.112;2023-09-19T05:05:38;100285.78;;;13.65;100.00
35224;BME280;21367;51.930;8.112;2023-09-19T05:10:43;100282.06;;;13.53;100.00
35224;BME280;21367;51.930;8.112;2023-09-19T05:15:47;100293.78;;;13.40;100.00
35224;BME280;21367;51.930;8.112;2023-09-19T05:20:53;100306.72;;;13.40;100.00
35224;BME280;21367;51.930;8.112;2023-09-19T05:25:57;100317.84;;;13.75;100.00
35224;BME280;21367;51.930;8.112;2023-09-19T05:31:05;100335.41;;;13.52;100.00
35224;BME280;21367;51.930;8.112;2023-09-19T05:36:12;100345.53;;;13.79;100.00
35224;BME280;21367;51.930;8.112;2023-09-19T05:41:16;100346.63;;;13.91;100.00
35224;BME280;21367;51.930;8.112;2023-09-19T05:46:20;100345.00;;;13.58;100.00
35224;BME280;21367;51.930;8.112;2023-09-19T05:51:26;100351.47;;;13.77;100.00
35224;BME280;21367;51.930;8.112;2023-09-19T05:56:29;100363.59;;;13.79;100.00
35224;BME280;21367;51.930;8.112;2023-09-19T06:01:33;100359.50;;;13.89;100.00
35224;BME280;21367;51.930;8.112;2023-09-19T06:06:39;100355.16;;;13.86;100.00
35224;BME280;21367;51.930;8.112;2023-09-19T06:11:43;100350.22;;;13.97;100.00
35224;BME280;21367;51.930;8.112;2023-09-19T06:16:47;100341.25;;;14.21;100.00
35224;BME280;21367;51.930;8.112;2023-09-19T06:21:53;100341.72;;;14.44;97.55
35224;BME280;21367;51.930;8.112;2023-09-19T06:26:57;100345.28;;;14.49;97.36
35224;BME280;21367;51.930;8.112;2023-09-19T06:32:02;100357.53;;;14.56;97.37
35224;BME280;21367;51.930;8.112;2023-09-19T06:37:13;100358.63;;;14.67;96.92
35224;BME280;21367;51.930;8.112;2023-09-19T06:42:16;100358.38;;;14.55;97.34
35224;BME280;21367;51.930;8.112;2023-09-19T06:47:20;100368.22;;;14.73;97.16
35224;BME280;21367;51.930;8.112;2023-09-19T06:52:29;100364.47;;;14.58;97.44
35224;BME280;21367;51.930;8.112;2023-09-19T06:57:32;100361.03;;;14.60;97.92
35224;BME280;21367;51.930;8.112;2023-09-19T07:02:36;100370.69;;;14.67;98.40
35224;BME280;21367;51.930;8.112;2023-09-19T07:07:44;100384.56;;;14.70;97.47
35224;BME280;21367;51.930;8.112;2023-09-19T07:12:47;100389.47;;;14.58;98.42
35224;BME280;21367;51.930;8.112;2023-09-19T07:17:51;100399.22;;;14.71;98.58
35224;BME280;21367;51.930;8.112;2023-09-19T07:22:59;100409.50;;;14.67;98.02
35224;BME280;21367;51.930;8.112;2023-09-19T07:28:03;100405.09;;;15.07;98.11
35224;BME280;21367;51.930;8.112;2023-09-19T07:33:07;100412.84;;;15.05;96.93
35224;BME280;21367;51.930;8.112;2023-09-19T07:38:14;100404.50;;;15.21;94.34
35224;BME280;21367;51.930;8.112;2023-09-19T07:43:18;100418.59;;;15.37;94.57
35224;BME280;21367;51.930;8.112;2023-09-19T07:48:22;100423.13;;;15.49;93.64
35224;BME280;21367;51.930;8.112;2023-09-19T07:53:28;100405.34;;;15.67;92.49
35224;BME280;21367;51.930;8.112;2023-09-19T07:58:36;100408.03;;;15.73;92.31
35224;BME280;21367;51.930;8.112;2023-09-19T08:03:44;100409.72;;;15.73;91.00
35224;BME280;21367;51.930;8.112;2023-09-19T08:08:53;100408.34;;;15.93;90.52
35224;BME280;21367;51.930;8.112;2023-09-19T08:13:59;100403.88;;;15.83;90.67
35224;BME280;21367;51.930;8.112;2023-09-19T08:19:02;100423.84;;;15.89;90.54
35224;BME280;21367;51.930;8.112;2023-09-19T08:24:09;100419.41;;;15.83;90.79
35224;BME280;21367;51.930;8.112;2023-09-19T08:29:12;100430.34;;;16.22;90.13
35224;BME280;21367;51.930;8.112;2023-09-19T08:34:15;100430.19;;;16.09;90.15
35224;BME280;21367;51.930;8.112;2023-09-19T08:39:22;100431.19;;;16.17;88.96
35224;BME280;21367;51.930;8.112;2023-09-19T08:44:26;100449.13;;;16.66;88.33
35224;BME280;21367;51.930;8.112;2023-09-19T08:49:37;100440.41;;;16.59;87.27
35224;BME280;21367;51.930;8.112;2023-09-19T08:54:49;100438.41;;;16.41;86.45
35224;BME280;21367;51.930;8.112;2023-09-19T08:59:55;100443.50;;;16.35;87.26
35224;BME280;21367;51.930;8.112;2023-09-19T09:05:01;100448.47;;;16.79;85.73
35224;BME280;21367;51.930;8.112;2023-09-19T09:10:10;100444.13;;;16.77;86.13
35224;BME280;21367;51.930;8.112;2023-09-19T09:15:15;100458.84;;;16.79;86.31
35224;BME280;21367;51.930;8.112;2023-09-19T09:20:22;100458.66;;;16.67;85.22
35224;BME280;21367;51.930;8.112;2023-09-19T09:25:50;100434.84;;;16.97;84.95
35224;BME280;21367;51.930;8.112;2023-09-19T09:30:57;100438.34;;;17.01;84.51
35224;BME280;21367;51.930;8.112;2023-09-19T09:36:03;100433.34;;;17.18;83.99
35224;BME280;21367;51.930;8.112;2023-09-19T09:41:11;100437.59;;;17.13;82.39
35224;BME280;21367;51.930;8.112;2023-09-19T09:46:18;100431.47;;;17.07;82.29
35224;BME280;21367;51.930;8.112;2023-09-19T09:51:35;100430.38;;;17.71;81.63
35224;BME280;21367;51.930;8.112;2023-09-19T09:56:55;100417.41;;;17.75;79.71
35224;BME280;21367;51.930;8.112;2023-09-19T10:02:01;100416.41;;;17.61;79.31
35224;BME280;21367;51.930;8.112;2023-09-19T10:07:06;100427.09;;;17.90;78.32
35224;BME280;21367;51.930;8.112;2023-09-19T10:12:15;100434.25;;;17.23;78.29
35224;BME280;21367;51.930;8.112;2023-09-19T10:17:20;100433.13;;;17.86;78.72
35224;BME280;21367;51.930;8.112;2023-09-19T10:22:26;100438.44;;;18.01;78.36
35224;BME280;21367;51.930;8.112;2023-09-19T10:27:36;100452.34;;;18.07;77.20
35224;BME280;21367;51.930;8.112;2023-09-19T10:32:40;100448.91;;;18.06;76.90
35224;BME280;21367;51.930;8.112;2023-09-19T10:37:47;100430.53;;;17.89;76.05
35224;BME280;21367;51.930;8.112;2023-09-19T10:43:00;100423.66;;;17.93;77.33
35224;BME280;21367;51.930;8.112;2023-09-19T10:48:05;100424.66;;;18.13;74.94
35224;BME280;21367;51.930;8.112;2023-09-19T10:53:09;100428.44;;;18.70;74.41
35224;BME280;21367;51.930;8.112;2023-09-19T10:58:25;100423.34;;;18.84;73.85
35224;BME280;21367;51.930;8.112;2023-09-19T11:03:29;100405.19;;;19.33;72.62
35224;BME280;21367;51.930;8.112;2023-09-19T11:08:55;100420.84;;;19.52;72.05
35224;BME280;21367;51.930;8.112;2023-09-19T11:14:42;100400.91;;;19.68;69.58
35224;BME280;21367;51.930;8.112;2023-09-19T11:20:19;100397.41;;;19.38;70.02
35224;BME280;21367;51.930;8.112;2023-09-19T11:25:42;100400.91;;;19.71;65.86
35224;BME280;21367;51.930;8.112;2023-09-19T11:30:51;100400.03;;;20.01;65.41
35224;BME280;21367;51.930;8.112;2023-09-19T11:36:00;100410.47;;;19.98;65.39
35224;BME280;21367;51.930;8.112;2023-09-19T11:41:38;100400.88;;;20.18;66.49
35224;BME280;21367;51.930;8.112;2023-09-19T11:46:55;100395.53;;;20.61;63.66
35224;BME280;21367;51.930;8.112;2023-09-19T11:52:00;100395.69;;;19.92;64.41
35224;BME280;21367;51.930;8.112;2023-09-19T11:57:07;100400.91;;;19.97;66.07
35224;BME280;21367;51.930;8.112;2023-09-19T12:02:19;100393.91;;;20.16;65.10
35224;BME280;21367;51.930;8.112;2023-09-19T12:07:42;100394.22;;;21.45;63.58
35224;BME280;21367;51.930;8.112;2023-09-19T12:12:47;100405.78;;;21.04;62.98
35224;BME280;21367;51.930;8.112;2023-09-19T12:17:55;100383.19;;;20.92;63.29
35224;BME280;21367;51.930;8.112;2023-09-19T12:22:59;100369.19;;;21.07;62.16
35224;BME280;21367;51.930;8.112;2023-09-19T12:28:03;100374.09;;;21.52;62.11
35224;BME280;21367;51.930;8.112;2023-09-19T12:33:18;100371.19;;;20.54;63.21
35224;BME280;21367;51.930;8.112;2023-09-19T12:38:27;100359.63;;;21.03;61.27
35224;BME280;21367;51.930;8.112;2023-09-19T12:43:35;100362.06;;;21.26;61.95
35224;BME280;21367;51.930;8.112;2023-09-19T12:48:43;100360.06;;;21.62;60.13
35224;BME280;21367;51.930;8.112;2023-09-19T12:53:57;100342.47;;;21.79;59.97
35224;BME280;21367;51.930;8.112;2023-09-19T12:59:01;100342.38;;;21.87;59.06
35224;BME280;21367;51.930;8.112;2023-09-19T13:04:18;100359.78;;;21.94;59.40
35224;BME280;21367;51.930;8.112;2023-09-19T13:09:27;100330.28;;;21.78;59.36
35224;BME280;21367;51.930;8.112;2023-09-19T13:14:35;100353.75;;;21.86;59.76
35224;BME280;21367;51.930;8.112;2023-09-19T13:19:45;100338.38;;;22.38;57.57
35224;BME280;21367;51.930;8.112;2023-09-19T13:24:49;100352.00;;;21.86;58.35
35224;BME280;21367;51.930;8.112;2023-09-19T13:29:54;100350.28;;;21.81;58.83
35224;BME280;21367;51.930;8.112;2023-09-19T13:35:01;100340.13;;;22.38;58.02
35224;BME280;21367;51.930;8.112;2023-09-19T13:40:07;100332.66;;;22.01;59.04
35224;BME280;21367;51.930;8.112;2023-09-19T13:45:10;100324.97;;;21.86;56.62
35224;BME280;21367;51.930;8.112;2023-09-19T13:50:20;100317.88;;;21.95;56.48
35224;BME280;21367;51.930;8.112;2023-09-19T13:55:26;100342.78;;;22.33;56.46
35224;BME280;21367;51.930;8.112;2023-09-19T14:00:29;100320.47;;;23.30;55.29
35224;BME280;21367;51.930;8.112;2023-09-19T14:05:37;100308.56;;;23.11;55.60
35224;BME280;21367;51.930;8.112;2023-09-19T14:10:43;100310.44;;;23.55;53.86
35224;BME280;21367;51.930;8.112;2023-09-19T14:15:46;100321.22;;;22.79;54.22
35224;BME280;21367;51.930;8.112;2023-09-19T14:20:53;100312.66;;;21.97;54.57
35224;BME280;21367;51.930;8.112;2023-09-19T14:26:00;100314.06;;;22.27;54.49
35224;BME280;21367;51.930;8.112;2023-09-19T14:31:06;100322.97;;;22.09;53.28
35224;BME280;21367;51.930;8.112;2023-09-19T14:36:13;100324.06;;;23.24;52.12
35224;BME280;21367;51.930;8.112;2023-09-19T14:41:17;100315.78;;;22.93;52.52
35224;BME280;21367;51.930;8.112;2023-09-19T14:46:21;100328.84;;;21.45;55.70
35224;BME280;21367;51.930;8.112;2023-09-19T14:51:29;100331.81;;;20.93;57.67
35224;BME280;21367;51.930;8.112;2023-09-19T14:56:33;100337.16;;;20.71;59.39
35224;BME280;21367;51.930;8.112;2023-09-19T15:01:37;100338.19;;;20.29;60.32
35224;BME280;21367;51.930;8.112;2023-09-19T15:06:44;100337.41;;;20.04;62.81
35224;BME280;21367;51.930;8.112;2023-09-19T15:11:49;100337.31;;;20.34;61.57
35224;BME280;21367;51.930;8.112;2023-09-19T15:16:53;100337.38;;;20.11;62.41
35224;BME280;21367;51.930;8.112;2023-09-19T15:21:59;100351.34;;;19.89;63.97
35224;BME280;21367;51.930;8.112;2023-09-19T15:27:03;100347.75;;;20.33;63.48
35224;BME280;21367;51.930;8.112;2023-09-19T15:32:07;100328.69;;;20.11;62.52
35224;BME280;21367;51.930;8.112;2023-09-19T15:37:13;100336.56;;;19.90;63.54
35224;BME280;21367;51.930;8.112;2023-09-19T15:42:17;100334.88;;;19.69;64.75
35224;BME280;21367;51.930;8.112;2023-09-19T15:47:22;100338.31;;;19.89;64.78
35224;BME280;21367;51.930;8.112;2023-09-19T15:52:28;100336.59;;;19.59;65.00
35224;BME280;21367;51.930;8.112;2023-09-19T15:57:31;100328.78;;;19.44;66.04
35224;BME280;21367;51.930;8.112;2023-09-19T16:02:35;100331.34;;;19.63;66.10
35224;BME280;21367;51.930;8.112;2023-09-19T16:07:42;100319.81;;;20.61;62.85
35224;BME280;21367;51.930;8.112;2023-09-19T16:12:45;100316.38;;;20.42;63.69
35224;BME280;21367;51.930;8.112;2023-09-19T16:17:49;100313.13;;;19.82;64.53
35224;BME280;21367;51.930;8.112;2023-09-19T16:22:55;100319.19;;;19.39;66.23
35224;BME280;21367;51.930;8.112;2023-09-19T16:27:59;100312.25;;;19.32;66.69
35224;BME280;21367;51.930;8.112;2023-09-19T16:33:04;100317.44;;;19.02;68.02
35224;BME280;21367;51.930;8.112;2023-09-19T16:38:10;100312.25;;;19.06;67.79
35224;BME280;21367;51.930;8.112;2023-09-19T16:43:14;100333.06;;;18.77;68.98
35224;BME280;21367;51.930;8.112;2023-09-19T16:48:17;100314.81;;;18.86;68.43
35224;BME280;21367;51.930;8.112;2023-09-19T16:53:24;100313.09;;;18.85;68.31
35224;BME280;21367;51.930;8.112;2023-09-19T16:58:27;100326.13;;;18.81;68.99
35224;BME280;21367;51.930;8.112;2023-09-19T17:03:31;100320.88;;;18.75;70.04
35224;BME280;21367;51.930;8.112;2023-09-19T17:08:38;100322.63;;;18.82;69.74
35224;BME280;21367;51.930;8.112;2023-09-19T17:13:44;100328.72;;;18.91;69.47
35224;BME280;21367;51.930;8.112;2023-09-19T17:18:53;100329.56;;;18.77;69.52
35224;BME280;21367;51.930;8.112;2023-09-19T17:24:00;100322.56;;;18.66;69.67
35224;BME280;21367;51.930;8.112;2023-09-19T17:29:05;100332.94;;;18.53;70.38
35224;BME280;21367;51.930;8.112;2023-09-19T17:34:11;100314.69;;;18.48;70.38
35224;BME280;21367;51.930;8.112;2023-09-19T17:39:18;100314.66;;;18.42;70.47
35224;BME280;21367;51.930;8.112;2023-09-19T17:44:22;100315.56;;;18.47;70.24
35224;BME280;21367;51.930;8.112;2023-09-19T17:49:26;100317.28;;;18.45;70.88
35224;BME280;21367;51.930;8.112;2023-09-19T17:54:33;100327.69;;;18.45;70.38
35224;BME280;21367;51.930;8.112;2023-09-19T17:59:37;100313.81;;;18.43;70.93
35224;BME280;21367;51.930;8.112;2023-09-19T18:04:40;100317.25;;;18.37;70.96
35224;BME280;21367;51.930;8.112;2023-09-19T18:09:47;100318.09;;;18.27;70.77
35224;BME280;21367;51.930;8.112;2023-09-19T18:14:51;100313.81;;;18.37;70.22
35224;BME280;21367;51.930;8.112;2023-09-19T18:19:55;100321.59;;;18.38;70.20
35224;BME280;21367;51.930;8.112;2023-09-19T18:25:01;100324.28;;;18.52;69.97
35224;BME280;21367;51.930;8.112;2023-09-19T18:30:06;100323.38;;;18.50;70.04
35224;BME280;21367;51.930;8.112;2023-09-19T18:35:10;100331.97;;;18.31;70.66
35224;BME280;21367;51.930;8.112;2023-09-19T18:40:18;100333.72;;;18.39;70.58
35224;BME280;21367;51.930;8.112;2023-09-19T18:45:21;100343.28;;;18.39;70.79
35224;BME280;21367;51.930;8.112;2023-09-19T18:50:25;100335.47;;;18.42;70.37
35224;BME280;21367;51.930;8.112;2023-09-19T18:55:32;100341.56;;;18.44;70.80
35224;BME280;21367;51.930;8.112;2023-09-19T19:00:36;100338.94;;;18.38;71.37
35224;BME280;21367;51.930;8.112;2023-09-19T19:05:40;100338.06;;;18.34;71.38
35224;BME280;21367;51.930;8.112;2023-09-19T19:10:47;100338.06;;;18.34;71.40
35224;BME280;21367;51.930;8.112;2023-09-19T19:15:50;100342.44;;;18.44;71.46
35224;BME280;21367;51.930;8.112;2023-09-19T19:20:57;100329.38;;;18.31;71.32
35224;BME280;21367;51.930;8.112;2023-09-19T19:26:04;100340.66;;;18.33;71.69
35224;BME280;21367;51.930;8.112;2023-09-19T19:31:09;100336.31;;;18.36;72.19
35224;BME280;21367;51.930;8.112;2023-09-19T19:36:13;100337.19;;;18.31;71.74
35224;BME280;21367;51.930;8.112;2023-09-19T19:41:20;100338.91;;;18.29;72.32
35224;BME280;21367;51.930;8.112;2023-09-19T19:46:23;100344.09;;;18.29;72.16
35224;BME280;21367;51.930;8.112;2023-09-19T19:51:27;100347.53;;;18.18;72.92
35224;BME280;21367;51.930;8.112;2023-09-19T19:56:36;100344.00;;;18.09;73.76
35224;BME280;21367;51.930;8.112;2023-09-19T20:01:42;100349.25;;;18.16;72.89
35224;BME280;21367;51.930;8.112;2023-09-19T20:06:46;100355.31;;;18.15;72.99
35224;BME280;21367;51.930;8.112;2023-09-19T20:11:52;100339.63;;;18.01;73.48
35224;BME280;21367;51.930;8.112;2023-09-19T20:16:56;100350.91;;;18.02;73.77
35224;BME280;21367;51.930;8.112;2023-09-19T20:22:00;100354.31;;;17.93;74.41
35224;BME280;21367;51.930;8.112;2023-09-19T20:27:09;100352.59;;;17.94;74.51
35224;BME280;21367;51.930;8.112;2023-09-19T20:32:13;100354.22;;;17.78;74.95
35224;BME280;21367;51.930;8.112;2023-09-19T20:37:19;100349.97;;;17.92;74.18
35224;BME280;21367;51.930;8.112;2023-09-19T20:42:26;100341.09;;;17.67;75.92
35224;BME280;21367;51.930;8.112;2023-09-19T20:47:30;100343.03;;;17.87;74.95
35224;BME280;21367;51.930;8.112;2023-09-19T20:52:35;100335.97;;;17.76;75.32
35224;BME280;21367;51.930;8.112;2023-09-19T20:57:41;100340.34;;;17.79;75.26
35224;BME280;21367;51.930;8.112;2023-09-19T21:02:44;100341.16;;;17.75;75.83
35224;BME280;21367;51.930;8.112;2023-09-19T21:07:48;100353.50;;;17.99;75.24
35224;BME280;21367;51.930;8.112;2023-09-19T21:12:55;100352.56;;;17.88;75.17
35224;BME280;21367;51.930;8.112;2023-09-19T21:17:59;100364.72;;;17.95;74.87
35224;BME280;21367;51.930;8.112;2023-09-19T21:23:03;100355.19;;;17.94;75.09
35224;BME280;21367;51.930;8.112;2023-09-19T21:28:17;100347.38;;;17.94;75.51
35224;BME280;21367;51.930;8.112;2023-09-19T21:33:21;100352.53;;;17.86;76.53
35224;BME280;21367;51.930;8.112;2023-09-19T21:38:25;100354.34;;;17.98;75.93
35224;BME280;21367;51.930;8.112;2023-09-19T21:43:31;100338.69;;;17.89;76.70
35224;BME280;21367;51.930;8.112;2023-09-19T21:48:36;100345.63;;;17.87;76.80
35224;BME280;21367;51.930;8.112;2023-09-19T21:53:40;100341.31;;;17.95;76.46
35224;BME280;21367;51.930;8.112;2023-09-19T21:58:47;100343.00;;;17.84;77.38
35224;BME280;21367;51.930;8.112;2023-09-19T22:03:50;100342.97;;;17.82;77.33
35224;BME280;21367;51.930;8.112;2023-09-19T22:08:54;100333.47;;;17.89;77.62
35224;BME280;21367;51.930;8.112;2023-09-19T22:14:00;100342.09;;;17.82;77.99
35224;BME280;21367;51.930;8.112;2023-09-19T22:19:04;100342.81;;;17.62;78.96
35224;BME280;21367;51.930;8.112;2023-09-19T22:24:08;100340.34;;;17.79;78.21
35224;BME280;21367;51.930;8.112;2023-09-19T22:29:18;100327.41;;;17.85;78.35
35224;BME280;21367;51.930;8.112;2023-09-19T22:34:24;100341.25;;;17.81;78.63
35224;BME280;21367;51.930;8.112;2023-09-19T22:39:28;100338.66;;;17.81;78.40
35224;BME280;21367;51.930;8.112;2023-09-19T22:44:34;100334.28;;;17.78;78.68
35224;BME280;21367;51.930;8.112;2023-09-19T22:49:38;100337.84;;;17.91;78.49
35224;BME280;21367;51.930;8.112;2023-09-19T22:54:42;100336.75;;;17.63;80.34
35224;BME280;21367;51.930;8.112;2023-09-19T22:59:51;100338.63;;;17.78;79.38
35224;BME280;21367;51.930;8.112;2023-09-19T23:04:55;100343.84;;;17.86;79.30
35224;BME280;21367;51.930;8.112;2023-09-19T23:10:02;100343.00;;;17.84;79.81
35224;BME280;21367;51.930;8.112;2023-09-19T23:15:09;100336.91;;;17.80;79.66
35224;BME280;21367;51.930;8.112;2023-09-19T23:20:18;100335.94;;;17.72;80.53
35224;BME280;21367;51.930;8.112;2023-09-19T23:25:25;100329.97;;;17.77;80.65
35224;BME280;21367;51.930;8.112;2023-09-19T23:30:34;100329.16;;;17.89;79.93
35224;BME280;21367;51.930;8.112;2023-09-19T23:35:38;100340.44;;;17.94;79.73
35224;BME280;21367;51.930;8.112;2023-09-19T23:40:42;100345.59;;;17.84;80.25
35224;BME280;21367;51.930;8.112;2023-09-19T23:45:53;100340.38;;;17.80;80.69
35224;BME280;21367;51.930;8.112;2023-09-19T23:50:58;100333.44;;;17.83;80.58
35224;BME280;21367;51.930;8.112;2023-09-19T23:56:04;100336.81;;;17.71;81.16
